createdAt,value
2023-04-17T00:02:15.938Z,9.33
2023-04-17T00:07:22.910Z,9.03
2023-04-17T00:12:30.218Z,8.70
2023-04-17T00:17:35.855Z,8.47
2023-04-17T00:22:41.516Z,8.77
2023-04-17T00:27:47.193Z,8.40
2023-04-17T00:32:52.841Z,9.10
2023-04-17T00:37:58.388Z,9.57
2023-04-17T00:43:05.309Z,8.90
2023-04-17T00:48:13.254Z,9.30
2023-04-17T00:53:19.601Z,7.87
2023-04-17T00:58:25.686Z,8.80
2023-04-17T01:03:33.393Z,8.10
2023-04-17T01:08:42.145Z,8.87
2023-04-17T01:13:51.599Z,9.73
2023-04-17T01:18:57.787Z,8.93
2023-04-17T01:24:07.118Z,9.07
2023-04-17T01:29:12.903Z,9.80
2023-04-17T01:34:18.724Z,10.70
2023-04-17T01:39:24.820Z,10.60
2023-04-17T01:44:30.401Z,9.30
2023-04-17T01:49:35.834Z,9.90
2023-04-17T01:54:41.348Z,10.30
2023-04-17T01:59:46.792Z,11.00
2023-04-17T02:04:52.673Z,10.47
2023-04-17T02:09:58.181Z,10.00
2023-04-17T02:15:03.755Z,11.07
2023-04-17T02:20:10.725Z,10.70
2023-04-17T02:25:16.321Z,11.27
2023-04-17T02:30:21.877Z,11.57
2023-04-17T02:35:29.375Z,12.90
2023-04-17T02:40:35.156Z,13.30
2023-04-17T02:45:40.772Z,13.53
2023-04-17T02:50:46.353Z,13.10
2023-04-17T02:55:53.553Z,12.73
2023-04-17T03:01:03.570Z,15.10
2023-04-17T03:06:10.896Z,16.23
2023-04-17T03:11:16.410Z,15.87
2023-04-17T03:16:21.982Z,16.07
2023-04-17T03:21:27.790Z,14.53
2023-04-17T03:26:33.471Z,15.47
2023-04-17T03:31:40.873Z,16.97
2023-04-17T03:36:46.741Z,17.10
2023-04-17T03:41:52.360Z,17.53
2023-04-17T03:46:58.029Z,16.87
2023-04-17T03:52:04.158Z,18.33
2023-04-17T03:57:10.326Z,16.67
2023-04-17T04:02:17.046Z,17.73
2023-04-17T04:07:22.661Z,18.63
2023-04-17T04:12:28.573Z,17.13
2023-04-17T04:17:34.568Z,17.13
2023-04-17T04:22:41.708Z,18.27
2023-04-17T04:27:49.164Z,17.23
2023-04-17T04:32:57.079Z,16.73
2023-04-17T04:38:03.086Z,15.00
2023-04-17T04:43:09.762Z,17.60
2023-04-17T04:48:19.784Z,16.57
2023-04-17T04:53:25.481Z,17.03
2023-04-17T04:58:32.780Z,16.77
2023-04-17T05:03:40.749Z,16.37
2023-04-17T05:08:47.410Z,17.03
2023-04-17T05:13:53.210Z,15.53
2023-04-17T05:19:06.374Z,15.43
2023-04-17T05:24:27.382Z,17.70
2023-04-17T05:29:33.177Z,17.30
2023-04-17T05:34:38.978Z,17.13
2023-04-17T05:39:46.431Z,18.77
2023-04-17T05:44:52.022Z,18.17
2023-04-17T05:49:58.860Z,16.40
2023-04-17T05:55:06.529Z,19.93
2023-04-17T06:00:14.176Z,19.10
2023-04-17T06:05:24.686Z,17.63
2023-04-17T06:10:33.808Z,17.93
2023-04-17T06:15:39.586Z,18.53
2023-04-17T06:20:47.027Z,20.23
2023-04-17T06:25:53.038Z,19.07
2023-04-17T06:30:59.071Z,19.77
2023-04-17T06:36:11.310Z,21.80
2023-04-17T06:41:27.266Z,20.73
2023-04-17T06:46:33.009Z,19.73
2023-04-17T06:51:40.494Z,20.33
2023-04-17T06:56:45.968Z,19.70
2023-04-17T07:01:52.734Z,20.50
2023-04-17T07:06:58.782Z,19.17
2023-04-17T07:12:04.349Z,19.23
2023-04-17T07:17:10.023Z,18.50
2023-04-17T07:22:15.785Z,20.33
2023-04-17T07:27:21.941Z,20.47
2023-04-17T07:32:28.527Z,19.63
2023-04-17T07:37:37.174Z,20.37
2023-04-17T07:42:45.740Z,18.63
2023-04-17T07:47:53.416Z,19.60
2023-04-17T07:52:59.412Z,19.33
2023-04-17T07:58:06.470Z,18.13
2023-04-17T08:03:13.946Z,18.37
2023-04-17T08:08:20.163Z,17.00
2023-04-17T08:13:27.776Z,17.77
2023-04-17T08:18:33.749Z,18.57
2023-04-17T08:23:40.704Z,15.67
2023-04-17T08:28:46.640Z,16.50
2023-04-17T08:33:59.480Z,15.43
2023-04-17T08:39:15.457Z,13.83
2023-04-17T08:44:22.776Z,14.40
2023-04-17T08:49:31.912Z,14.27
2023-04-17T08:54:38.475Z,13.97
2023-04-17T08:59:44.135Z,14.10
2023-04-17T09:04:49.874Z,13.83
2023-04-17T09:09:57.588Z,11.60
2023-04-17T09:15:06.231Z,13.37
2023-04-17T09:20:12.599Z,12.67
2023-04-17T09:25:19.876Z,12.07
2023-04-17T09:30:27.182Z,12.40
2023-04-17T09:35:39.388Z,14.83
2023-04-17T09:40:45.438Z,14.23
2023-04-17T09:45:52.433Z,13.47
2023-04-17T09:50:58.494Z,11.03
2023-04-17T09:56:05.801Z,10.80
2023-04-17T10:01:13.009Z,10.40
2023-04-17T10:06:18.852Z,11.07
2023-04-17T10:11:27.499Z,10.93
2023-04-17T10:16:40.596Z,8.87
2023-04-17T10:21:48.113Z,10.30
2023-04-17T10:26:53.701Z,9.37
2023-04-17T10:32:14.248Z,9.73
2023-04-17T10:37:21.828Z,9.63
2023-04-17T10:42:28.957Z,9.43
2023-04-17T10:47:36.206Z,9.00
2023-04-17T10:52:44.825Z,8.70
2023-04-17T10:57:56.106Z,8.70
2023-04-17T11:03:05.679Z,8.50
2023-04-17T11:08:12.113Z,8.80
2023-04-17T11:13:17.679Z,8.67
2023-04-17T11:18:23.321Z,9.40
2023-04-17T11:23:34.111Z,8.57
2023-04-17T11:28:39.706Z,8.97
2023-04-17T11:33:45.384Z,8.67
2023-04-17T11:38:51.169Z,9.17
2023-04-17T11:43:56.830Z,8.40
2023-04-17T11:49:03.959Z,8.63
2023-04-17T11:54:09.527Z,8.83
2023-04-17T11:59:15.097Z,8.97
2023-04-17T12:04:31.056Z,9.17
2023-04-17T12:09:37.541Z,7.83
2023-04-17T12:14:43.160Z,7.63
2023-04-17T12:19:48.749Z,7.93
2023-04-17T12:24:57.428Z,7.60
2023-04-17T12:30:03.128Z,6.93
2023-04-17T12:35:08.804Z,7.67
2023-04-17T12:40:18.181Z,7.43
2023-04-17T12:45:24.223Z,7.43
2023-04-17T12:50:29.787Z,6.47
2023-04-17T12:55:35.537Z,7.43
2023-04-17T13:00:44.117Z,6.80
2023-04-17T13:05:52.158Z,5.30
2023-04-17T13:10:57.817Z,5.63
2023-04-17T13:16:03.507Z,5.57
2023-04-17T13:21:09.417Z,5.63
2023-04-17T13:26:14.968Z,4.70
2023-04-17T13:31:20.533Z,4.97
2023-04-17T13:36:26.546Z,5.13
2023-04-17T13:41:35.284Z,4.93
2023-04-17T13:46:41.790Z,4.07
2023-04-17T13:51:47.617Z,3.73
2023-04-17T13:56:55.263Z,4.20
2023-04-17T14:02:02.743Z,4.40
2023-04-17T14:07:08.507Z,5.20
2023-04-17T14:12:15.583Z,4.57
2023-04-17T14:17:21.170Z,4.93
2023-04-17T14:22:27.667Z,5.20
2023-04-17T14:27:34.459Z,5.83
2023-04-17T14:32:40.379Z,5.03
2023-04-17T14:37:45.959Z,5.83
2023-04-17T14:42:54.666Z,5.87
2023-04-17T14:48:01.421Z,5.83
2023-04-17T14:53:07.454Z,7.77
2023-04-17T14:58:14.687Z,6.50
2023-04-17T15:03:20.329Z,7.20
2023-04-17T15:08:26.445Z,6.80
2023-04-17T15:13:32.161Z,6.40
2023-04-17T15:18:39.520Z,6.40
2023-04-17T15:23:46.321Z,6.00
2023-04-17T15:28:53.274Z,7.17
2023-04-17T15:34:02.208Z,7.13
2023-04-17T15:39:07.877Z,7.47
2023-04-17T15:44:13.432Z,6.87
2023-04-17T15:49:19.092Z,7.07
2023-04-17T15:54:24.629Z,7.10
2023-04-17T15:59:32.103Z,6.93
2023-04-17T16:04:39.567Z,7.50
2023-04-17T16:09:46.689Z,6.87
2023-04-17T16:14:52.173Z,6.83
2023-04-17T16:19:58.274Z,7.83
2023-04-17T16:25:03.988Z,7.80
2023-04-17T16:30:11.156Z,7.53
2023-04-17T16:35:17.296Z,7.40
2023-04-17T16:40:23.593Z,7.70
2023-04-17T16:45:29.163Z,7.80
2023-04-17T16:50:34.673Z,7.63
2023-04-17T16:55:40.500Z,6.77
2023-04-17T17:00:46.024Z,7.07
2023-04-17T17:05:51.710Z,6.00
2023-04-17T17:10:57.204Z,6.27
2023-04-17T17:16:02.990Z,7.07
2023-04-17T17:21:08.620Z,8.00
2023-04-17T17:26:14.134Z,7.47
2023-04-17T17:31:20.174Z,8.10
2023-04-17T17:36:26.382Z,8.80
2023-04-17T17:41:31.885Z,8.40
2023-04-17T17:46:37.503Z,7.17
2023-04-17T17:51:44.711Z,8.60
2023-04-17T17:57:06.320Z,10.53
2023-04-17T18:02:11.981Z,8.00
2023-04-17T18:07:17.527Z,8.00
2023-04-17T18:12:23.482Z,8.33
2023-04-17T18:17:29.141Z,8.77
2023-04-17T18:22:35.367Z,8.80
2023-04-17T18:27:41.087Z,8.03
2023-04-17T18:32:46.581Z,8.03
2023-04-17T18:37:53.157Z,8.53
2023-04-17T18:42:58.770Z,9.33
2023-04-17T18:48:04.472Z,8.00
2023-04-17T18:53:10.118Z,8.17
2023-04-17T18:58:15.757Z,7.83
2023-04-17T19:03:21.292Z,8.60
2023-04-17T19:08:26.873Z,8.80
2023-04-17T19:13:32.613Z,8.47
2023-04-17T19:18:38.132Z,7.80
2023-04-17T19:23:44.081Z,7.53
2023-04-17T19:28:49.665Z,7.93
2023-04-17T19:33:56.772Z,7.10
2023-04-17T19:39:08.702Z,8.80
2023-04-17T19:44:14.415Z,7.73
2023-04-17T19:49:19.880Z,8.03
2023-04-17T19:54:25.571Z,8.40
2023-04-17T19:59:31.206Z,8.40
2023-04-17T20:04:36.646Z,8.37
2023-04-17T20:09:42.313Z,8.27
2023-04-17T20:14:49.963Z,8.27
2023-04-17T20:19:55.520Z,8.10
2023-04-17T20:25:00.960Z,8.93
2023-04-17T20:30:07.053Z,9.60
2023-04-17T20:35:12.793Z,7.93
2023-04-17T20:40:18.837Z,8.30
2023-04-17T20:45:30.570Z,8.37
2023-04-17T20:50:37.154Z,7.93
2023-04-17T20:55:42.751Z,8.70
2023-04-17T21:05:55.666Z,8.00
2023-04-17T21:11:01.429Z,7.77
2023-04-17T21:16:08.725Z,8.00
2023-04-17T21:21:14.274Z,7.77
2023-04-17T21:26:19.832Z,7.63
2023-04-17T21:31:25.732Z,8.97
2023-04-17T21:36:31.550Z,8.93
2023-04-17T21:41:37.173Z,8.33
2023-04-17T21:46:47.101Z,8.50
2023-04-17T21:51:53.746Z,7.37
2023-04-17T21:56:59.529Z,7.33
2023-04-17T22:02:05.626Z,7.70
2023-04-17T22:07:11.308Z,7.77
2023-04-17T22:12:19.977Z,7.03
2023-04-17T22:17:25.685Z,7.63
2023-04-17T22:22:31.469Z,6.80
2023-04-17T22:27:37.006Z,6.40
2023-04-17T22:32:42.650Z,6.77
2023-04-17T22:37:48.398Z,7.67
2023-04-17T22:43:00.706Z,7.40
2023-04-17T22:48:06.854Z,6.93
2023-04-17T22:53:12.499Z,7.87
2023-04-17T22:58:18.113Z,7.70
2023-04-17T23:03:24.053Z,6.63
2023-04-17T23:08:31.583Z,8.03
2023-04-17T23:13:37.057Z,7.07
2023-04-17T23:18:42.798Z,7.57
2023-04-17T23:23:48.585Z,7.57
2023-04-17T23:28:54.433Z,7.67
2023-04-17T23:34:00.172Z,8.70
2023-04-17T23:39:05.953Z,8.57
2023-04-17T23:44:11.893Z,8.33
2023-04-17T23:49:17.686Z,7.80
2023-04-17T23:54:23.213Z,8.63
2023-04-17T23:59:28.816Z,8.67
